sensor_id;sensor_type;location;lat;lon;timestamp;P1;durP1;ratioP1;P2;durP2;ratioP2
42964;SDS011;28604;51.204;22.552;2023-04-03T00:01:37;1.40;;;1.30;;
42964;SDS011;28604;51.204;22.552;2023-04-03T00:04:04;1.20;;;1.15;;
42964;SDS011;28604;51.204;22.552;2023-04-03T00:06:31;1.00;;;1.00;;
42964;SDS011;28604;51.204;22.552;2023-04-03T00:08:57;1.60;;;1.50;;
42964;SDS011;28604;51.204;22.552;2023-04-03T00:11:23;1.15;;;1.10;;
42964;SDS011;28604;51.204;22.552;2023-04-03T00:13:50;1.88;;;1.63;;
42964;SDS011;28604;51.204;22.552;2023-04-03T00:16:16;2.50;;;1.95;;
42964;SDS011;28604;51.204;22.552;2023-04-03T00:18:42;1.20;;;1.20;;
42964;SDS011;28604;51.204;22.552;2023-04-03T00:21:09;1.73;;;1.63;;
42964;SDS011;28604;51.204;22.552;2023-04-03T00:23:38;1.10;;;1.10;;
42964;SDS011;28604;51.204;22.552;2023-04-03T00:26:04;2.55;;;2.10;;
42964;SDS011;28604;51.204;22.552;2023-04-03T00:28:30;3.97;;;1.23;;
42964;SDS011;28604;51.204;22.552;2023-04-03T00:30:56;2.15;;;1.23;;
42964;SDS011;28604;51.204;22.552;2023-04-03T00:33:22;1.70;;;1.58;;
42964;SDS011;28604;51.204;22.552;2023-04-03T00:35:49;0.93;;;0.93;;
42964;SDS011;28604;51.204;22.552;2023-04-03T00:38:16;1.20;;;1.20;;
42964;SDS011;28604;51.204;22.552;2023-04-03T00:40:43;1.30;;;1.30;;
42964;SDS011;28604;51.204;22.552;2023-04-03T00:43:13;1.05;;;1.02;;
42964;SDS011;28604;51.204;22.552;2023-04-03T00:45:42;1.92;;;1.10;;
42964;SDS011;28604;51.204;22.552;2023-04-03T00:48:31;2.60;;;1.63;;
42964;SDS011;28604;51.204;22.552;2023-04-03T00:51:07;1.05;;;1.05;;
42964;SDS011;28604;51.204;22.552;2023-04-03T00:53:45;1.10;;;1.10;;
42964;SDS011;28604;51.204;22.552;2023-04-03T00:56:15;1.65;;;1.23;;
42964;SDS011;28604;51.204;22.552;2023-04-03T00:58:49;1.05;;;1.00;;
42964;SDS011;28604;51.204;22.552;2023-04-03T01:06:55;1.38;;;1.27;;
42964;SDS011;28604;51.204;22.552;2023-04-03T01:09:23;1.20;;;1.20;;
42964;SDS011;28604;51.204;22.552;2023-04-03T01:11:49;1.33;;;1.33;;
42964;SDS011;28604;51.204;22.552;2023-04-03T01:14:16;1.10;;;1.00;;
42964;SDS011;28604;51.204;22.552;2023-04-03T01:16:41;0.77;;;0.77;;
42964;SDS011;28604;51.204;22.552;2023-04-03T01:19:10;0.80;;;0.80;;
42964;SDS011;28604;51.204;22.552;2023-04-03T01:21:45;1.20;;;0.82;;
42964;SDS011;28604;51.204;22.552;2023-04-03T01:26:51;1.17;;;1.17;;
42964;SDS011;28604;51.204;22.552;2023-04-03T01:29:17;1.25;;;1.20;;
42964;SDS011;28604;51.204;22.552;2023-04-03T01:31:45;1.42;;;1.23;;
42964;SDS011;28604;51.204;22.552;2023-04-03T01:34:22;2.05;;;1.48;;
42964;SDS011;28604;51.204;22.552;2023-04-03T01:36:49;1.25;;;1.10;;
42964;SDS011;28604;51.204;22.552;2023-04-03T01:39:16;1.52;;;1.42;;
42964;SDS011;28604;51.204;22.552;2023-04-03T01:41:42;1.48;;;1.38;;
42964;SDS011;28604;51.204;22.552;2023-04-03T01:44:15;0.98;;;0.98;;
42964;SDS011;28604;51.204;22.552;2023-04-03T01:46:40;1.10;;;1.10;;
42964;SDS011;28604;51.204;22.552;2023-04-03T01:49:07;1.00;;;1.00;;
42964;SDS011;28604;51.204;22.552;2023-04-03T01:51:33;0.77;;;0.77;;
42964;SDS011;28604;51.204;22.552;2023-04-03T01:54:02;1.17;;;1.17;;
42964;SDS011;28604;51.204;22.552;2023-04-03T01:56:29;0.95;;;0.90;;
42964;SDS011;28604;51.204;22.552;2023-04-03T01:58:57;1.95;;;1.05;;
42964;SDS011;28604;51.204;22.552;2023-04-03T02:01:23;3.15;;;1.48;;
42964;SDS011;28604;51.204;22.552;2023-04-03T02:03:49;1.05;;;1.05;;
42964;SDS011;28604;51.204;22.552;2023-04-03T02:06:15;2.15;;;0.80;;
42964;SDS011;28604;51.204;22.552;2023-04-03T02:08:41;1.42;;;1.00;;
42964;SDS011;28604;51.204;22.552;2023-04-03T02:11:07;0.93;;;0.85;;
42964;SDS011;28604;51.204;22.552;2023-04-03T02:13:33;0.70;;;0.70;;
42964;SDS011;28604;51.204;22.552;2023-04-03T02:16:05;0.60;;;0.60;;
42964;SDS011;28604;51.204;22.552;2023-04-03T02:18:32;1.08;;;1.08;;
42964;SDS011;28604;51.204;22.552;2023-04-03T02:20:58;0.70;;;0.70;;
42964;SDS011;28604;51.204;22.552;2023-04-03T02:23:24;1.13;;;0.75;;
42964;SDS011;28604;51.204;22.552;2023-04-03T02:25:50;0.90;;;0.70;;
42964;SDS011;28604;51.204;22.552;2023-04-03T02:28:16;2.33;;;0.77;;
42964;SDS011;28604;51.204;22.552;2023-04-03T02:30:41;1.48;;;0.70;;
42964;SDS011;28604;51.204;22.552;2023-04-03T02:33:08;1.30;;;0.88;;
42964;SDS011;28604;51.204;22.552;2023-04-03T02:35:34;1.77;;;0.75;;
42964;SDS011;28604;51.204;22.552;2023-04-03T02:38:00;0.60;;;0.52;;
42964;SDS011;28604;51.204;22.552;2023-04-03T02:40:26;1.17;;;0.40;;
42964;SDS011;28604;51.204;22.552;2023-04-03T02:42:52;0.60;;;0.45;;
42964;SDS011;28604;51.204;22.552;2023-04-03T02:45:19;1.17;;;0.63;;
42964;SDS011;28604;51.204;22.552;2023-04-03T02:47:45;0.73;;;0.73;;
42964;SDS011;28604;51.204;22.552;2023-04-03T02:50:11;3.28;;;1.30;;
42964;SDS011;28604;51.204;22.552;2023-04-03T02:52:37;1.33;;;0.80;;
42964;SDS011;28604;51.204;22.552;2023-04-03T02:55:03;1.10;;;1.05;;
42964;SDS011;28604;51.204;22.552;2023-04-03T02:57:29;6.15;;;0.88;;
42964;SDS011;28604;51.204;22.552;2023-04-03T02:59:55;3.55;;;1.00;;
42964;SDS011;28604;51.204;22.552;2023-04-03T03:02:21;1.83;;;0.75;;
42964;SDS011;28604;51.204;22.552;2023-04-03T03:04:47;1.70;;;1.05;;
42964;SDS011;28604;51.204;22.552;2023-04-03T03:07:13;1.70;;;1.60;;
42964;SDS011;28604;51.204;22.552;2023-04-03T03:09:40;1.80;;;1.63;;
42964;SDS011;28604;51.204;22.552;2023-04-03T03:12:06;1.52;;;1.42;;
42964;SDS011;28604;51.204;22.552;2023-04-03T03:14:31;1.88;;;1.50;;
42964;SDS011;28604;51.204;22.552;2023-04-03T03:16:57;7.57;;;1.77;;
42964;SDS011;28604;51.204;22.552;2023-04-03T03:19:23;2.67;;;1.80;;
42964;SDS011;28604;51.204;22.552;2023-04-03T03:21:51;3.30;;;1.27;;
42964;SDS011;28604;51.204;22.552;2023-04-03T03:24:17;1.55;;;1.33;;
42964;SDS011;28604;51.204;22.552;2023-04-03T03:26:43;3.60;;;1.60;;
42964;SDS011;28604;51.204;22.552;2023-04-03T03:29:09;4.68;;;1.58;;
42964;SDS011;28604;51.204;22.552;2023-04-03T03:31:36;1.73;;;1.30;;
42964;SDS011;28604;51.204;22.552;2023-04-03T03:34:02;2.42;;;1.48;;
42964;SDS011;28604;51.204;22.552;2023-04-03T03:36:28;1.17;;;1.17;;
42964;SDS011;28604;51.204;22.552;2023-04-03T03:38:53;0.80;;;0.80;;
42964;SDS011;28604;51.204;22.552;2023-04-03T03:41:20;3.20;;;1.05;;
42964;SDS011;28604;51.204;22.552;2023-04-03T03:43:46;0.55;;;0.52;;
42964;SDS011;28604;51.204;22.552;2023-04-03T03:46:14;0.82;;;0.82;;
42964;SDS011;28604;51.204;22.552;2023-04-03T03:48:40;2.45;;;0.90;;
42964;SDS011;28604;51.204;22.552;2023-04-03T03:51:06;1.10;;;1.00;;
42964;SDS011;28604;51.204;22.552;2023-04-03T03:53:35;1.48;;;0.50;;
42964;SDS011;28604;51.204;22.552;2023-04-03T03:56:05;3.45;;;1.58;;
42964;SDS011;28604;51.204;22.552;2023-04-03T03:58:33;3.22;;;2.50;;
42964;SDS011;28604;51.204;22.552;2023-04-03T04:01:03;0.85;;;0.85;;
42964;SDS011;28604;51.204;22.552;2023-04-03T04:03:31;2.05;;;0.93;;
42964;SDS011;28604;51.204;22.552;2023-04-03T04:05:58;1.38;;;0.45;;
42964;SDS011;28604;51.204;22.552;2023-04-03T04:08:24;2.53;;;0.43;;
42964;SDS011;28604;51.204;22.552;2023-04-03T04:10:50;3.58;;;0.75;;
42964;SDS011;28604;51.204;22.552;2023-04-03T04:13:18;3.42;;;0.70;;
42964;SDS011;28604;51.204;22.552;2023-04-03T04:15:45;1.00;;;0.98;;
42964;SDS011;28604;51.204;22.552;2023-04-03T04:18:11;3.03;;;0.80;;
42964;SDS011;28604;51.204;22.552;2023-04-03T04:20:40;0.95;;;0.52;;
42964;SDS011;28604;51.204;22.552;2023-04-03T04:23:06;1.17;;;0.85;;
42964;SDS011;28604;51.204;22.552;2023-04-03T04:25:32;1.23;;;0.43;;
42964;SDS011;28604;51.204;22.552;2023-04-03T04:27:58;5.38;;;0.73;;
42964;SDS011;28604;51.204;22.552;2023-04-03T04:30:24;4.28;;;0.60;;
42964;SDS011;28604;51.204;22.552;2023-04-03T04:32:52;2.88;;;0.77;;
42964;SDS011;28604;51.204;22.552;2023-04-03T04:35:18;0.90;;;0.30;;
42964;SDS011;28604;51.204;22.552;2023-04-03T04:37:47;2.60;;;0.40;;
42964;SDS011;28604;51.204;22.552;2023-04-03T04:40:14;1.42;;;0.70;;
42964;SDS011;28604;51.204;22.552;2023-04-03T04:42:40;1.92;;;0.40;;
42964;SDS011;28604;51.204;22.552;2023-04-03T04:45:07;3.08;;;0.80;;
42964;SDS011;28604;51.204;22.552;2023-04-03T04:47:33;1.70;;;0.43;;
42964;SDS011;28604;51.204;22.552;2023-04-03T04:49:59;0.63;;;0.52;;
42964;SDS011;28604;51.204;22.552;2023-04-03T04:52:26;2.45;;;0.50;;
42964;SDS011;28604;51.204;22.552;2023-04-03T04:54:52;2.75;;;0.57;;
42964;SDS011;28604;51.204;22.552;2023-04-03T04:57:18;1.63;;;0.90;;
42964;SDS011;28604;51.204;22.552;2023-04-03T04:59:46;1.33;;;0.63;;
42964;SDS011;28604;51.204;22.552;2023-04-03T05:02:12;4.03;;;1.25;;
42964;SDS011;28604;51.204;22.552;2023-04-03T05:04:40;2.05;;;1.15;;
42964;SDS011;28604;51.204;22.552;2023-04-03T05:07:12;2.45;;;1.10;;
42964;SDS011;28604;51.204;22.552;2023-04-03T05:09:38;2.33;;;0.60;;
42964;SDS011;28604;51.204;22.552;2023-04-03T05:12:07;1.45;;;0.63;;
42964;SDS011;28604;51.204;22.552;2023-04-03T05:14:40;2.17;;;0.50;;
42964;SDS011;28604;51.204;22.552;2023-04-03T05:17:08;2.88;;;0.80;;
42964;SDS011;28604;51.204;22.552;2023-04-03T05:19:37;1.73;;;0.50;;
42964;SDS011;28604;51.204;22.552;2023-04-03T05:22:05;3.35;;;0.60;;
42964;SDS011;28604;51.204;22.552;2023-04-03T05:24:31;2.63;;;0.90;;
42964;SDS011;28604;51.204;22.552;2023-04-03T05:26:58;2.20;;;0.65;;
42964;SDS011;28604;51.204;22.552;2023-04-03T05:29:25;2.90;;;0.77;;
42964;SDS011;28604;51.204;22.552;2023-04-03T05:31:51;10.15;;;1.00;;
42964;SDS011;28604;51.204;22.552;2023-04-03T05:34:17;1.13;;;0.50;;
42964;SDS011;28604;51.204;22.552;2023-04-03T05:36:46;3.90;;;1.17;;
42964;SDS011;28604;51.204;22.552;2023-04-03T05:39:13;3.47;;;1.10;;
42964;SDS011;28604;51.204;22.552;2023-04-03T05:41:42;3.03;;;1.23;;
42964;SDS011;28604;51.204;22.552;2023-04-03T05:44:08;7.85;;;1.20;;
42964;SDS011;28604;51.204;22.552;2023-04-03T05:46:34;2.28;;;1.02;;
42964;SDS011;28604;51.204;22.552;2023-04-03T05:49:03;2.75;;;0.95;;
42964;SDS011;28604;51.204;22.552;2023-04-03T05:51:34;1.20;;;0.85;;
42964;SDS011;28604;51.204;22.552;2023-04-03T05:54:10;2.42;;;1.58;;
42964;SDS011;28604;51.204;22.552;2023-04-03T05:56:39;8.10;;;1.45;;
42964;SDS011;28604;51.204;22.552;2023-04-03T05:59:05;3.17;;;1.55;;
42964;SDS011;28604;51.204;22.552;2023-04-03T06:01:33;1.05;;;0.95;;
42964;SDS011;28604;51.204;22.552;2023-04-03T06:04:00;2.58;;;0.80;;
42964;SDS011;28604;51.204;22.552;2023-04-03T06:06:26;3.30;;;1.77;;
42964;SDS011;28604;51.204;22.552;2023-04-03T06:09:09;6.07;;;3.50;;
42964;SDS011;28604;51.204;22.552;2023-04-03T06:11:34;5.45;;;1.60;;
42964;SDS011;28604;51.204;22.552;2023-04-03T06:14:01;4.18;;;1.55;;
42964;SDS011;28604;51.204;22.552;2023-04-03T06:16:28;1.17;;;1.08;;
42964;SDS011;28604;51.204;22.552;2023-04-03T06:18:54;1.92;;;1.20;;
42964;SDS011;28604;51.204;22.552;2023-04-03T06:21:21;7.80;;;1.48;;
42964;SDS011;28604;51.204;22.552;2023-04-03T06:23:47;3.40;;;1.35;;
42964;SDS011;28604;51.204;22.552;2023-04-03T06:26:13;3.20;;;1.50;;
42964;SDS011;28604;51.204;22.552;2023-04-03T06:28:39;5.72;;;2.10;;
42964;SDS011;28604;51.204;22.552;2023-04-03T06:31:05;5.55;;;1.88;;
42964;SDS011;28604;51.204;22.552;2023-04-03T06:33:31;4.55;;;2.50;;
42964;SDS011;28604;51.204;22.552;2023-04-03T06:35:57;3.47;;;2.25;;
42964;SDS011;28604;51.204;22.552;2023-04-03T06:38:24;5.43;;;1.45;;
42964;SDS011;28604;51.204;22.552;2023-04-03T06:40:50;4.75;;;1.55;;
42964;SDS011;28604;51.204;22.552;2023-04-03T06:43:17;2.17;;;1.00;;
42964;SDS011;28604;51.204;22.552;2023-04-03T06:45:42;2.15;;;0.77;;
42964;SDS011;28604;51.204;22.552;2023-04-03T06:48:08;0.98;;;0.85;;
42964;SDS011;28604;51.204;22.552;2023-04-03T06:50:34;2.80;;;1.08;;
42964;SDS011;28604;51.204;22.552;2023-04-03T06:53:01;2.83;;;1.15;;
42964;SDS011;28604;51.204;22.552;2023-04-03T06:55:26;3.28;;;0.90;;
42964;SDS011;28604;51.204;22.552;2023-04-03T06:57:53;4.72;;;1.58;;
42964;SDS011;28604;51.204;22.552;2023-04-03T07:00:18;4.20;;;1.27;;
42964;SDS011;28604;51.204;22.552;2023-04-03T07:02:45;3.33;;;1.23;;
42964;SDS011;28604;51.204;22.552;2023-04-03T07:05:11;1.63;;;1.17;;
42964;SDS011;28604;51.204;22.552;2023-04-03T07:07:38;2.55;;;1.38;;
42964;SDS011;28604;51.204;22.552;2023-04-03T07:10:05;3.90;;;1.25;;
42964;SDS011;28604;51.204;22.552;2023-04-03T07:12:33;4.97;;;1.30;;
42964;SDS011;28604;51.204;22.552;2023-04-03T07:14:59;4.53;;;2.03;;
42964;SDS011;28604;51.204;22.552;2023-04-03T07:17:25;4.47;;;1.90;;
42964;SDS011;28604;51.204;22.552;2023-04-03T07:19:51;3.75;;;1.38;;
42964;SDS011;28604;51.204;22.552;2023-04-03T07:22:17;3.92;;;1.25;;
42964;SDS011;28604;51.204;22.552;2023-04-03T07:24:43;2.55;;;1.08;;
42964;SDS011;28604;51.204;22.552;2023-04-03T07:27:09;3.38;;;1.48;;
42964;SDS011;28604;51.204;22.552;2023-04-03T07:29:38;4.72;;;1.50;;
42964;SDS011;28604;51.204;22.552;2023-04-03T07:32:04;2.60;;;0.98;;
42964;SDS011;28604;51.204;22.552;2023-04-03T07:34:32;2.88;;;1.17;;
42964;SDS011;28604;51.204;22.552;2023-04-03T07:36:58;1.13;;;0.98;;
42964;SDS011;28604;51.204;22.552;2023-04-03T07:39:25;3.33;;;0.98;;
42964;SDS011;28604;51.204;22.552;2023-04-03T07:41:51;1.98;;;1.05;;
42964;SDS011;28604;51.204;22.552;2023-04-03T07:44:17;6.68;;;1.33;;
42964;SDS011;28604;51.204;22.552;2023-04-03T07:46:43;2.60;;;1.20;;
42964;SDS011;28604;51.204;22.552;2023-04-03T07:49:09;6.30;;;1.30;;
42964;SDS011;28604;51.204;22.552;2023-04-03T07:51:35;4.75;;;1.30;;
42964;SDS011;28604;51.204;22.552;2023-04-03T07:54:01;6.07;;;2.00;;
42964;SDS011;28604;51.204;22.552;2023-04-03T07:56:27;7.22;;;2.90;;
42964;SDS011;28604;51.204;22.552;2023-04-03T07:58:53;4.75;;;1.73;;
42964;SDS011;28604;51.204;22.552;2023-04-03T08:01:19;4.45;;;2.22;;
42964;SDS011;28604;51.204;22.552;2023-04-03T08:03:45;5.40;;;2.13;;
42964;SDS011;28604;51.204;22.552;2023-04-03T08:06:11;3.45;;;1.88;;
42964;SDS011;28604;51.204;22.552;2023-04-03T08:08:40;5.03;;;2.17;;
42964;SDS011;28604;51.204;22.552;2023-04-03T08:11:06;9.02;;;2.25;;
42964;SDS011;28604;51.204;22.552;2023-04-03T08:13:33;4.18;;;1.52;;
42964;SDS011;28604;51.204;22.552;2023-04-03T08:16:08;3.25;;;1.45;;
42964;SDS011;28604;51.204;22.552;2023-04-03T08:18:35;7.38;;;1.67;;
42964;SDS011;28604;51.204;22.552;2023-04-03T08:21:04;4.68;;;1.35;;
42964;SDS011;28604;51.204;22.552;2023-04-03T08:23:31;3.55;;;1.38;;
42964;SDS011;28604;51.204;22.552;2023-04-03T08:25:57;11.15;;;2.75;;
42964;SDS011;28604;51.204;22.552;2023-04-03T08:28:23;2.40;;;1.65;;
42964;SDS011;28604;51.204;22.552;2023-04-03T08:30:49;3.30;;;1.08;;
42964;SDS011;28604;51.204;22.552;2023-04-03T08:33:16;4.50;;;1.30;;
42964;SDS011;28604;51.204;22.552;2023-04-03T08:35:42;2.67;;;1.17;;
42964;SDS011;28604;51.204;22.552;2023-04-03T08:38:08;1.90;;;1.25;;
42964;SDS011;28604;51.204;22.552;2023-04-03T08:40:34;3.25;;;1.45;;
42964;SDS011;28604;51.204;22.552;2023-04-03T08:43:06;2.83;;;1.40;;
42964;SDS011;28604;51.204;22.552;2023-04-03T08:45:59;4.75;;;1.67;;
42964;SDS011;28604;51.204;22.552;2023-04-03T08:48:29;6.32;;;1.88;;
42964;SDS011;28604;51.204;22.552;2023-04-03T08:51:01;6.50;;;3.65;;
42964;SDS011;28604;51.204;22.552;2023-04-03T08:53:32;3.28;;;2.95;;
42964;SDS011;28604;51.204;22.552;2023-04-03T08:56:05;6.97;;;2.47;;
42964;SDS011;28604;51.204;22.552;2023-04-03T08:59:11;1.85;;;1.40;;
42964;SDS011;28604;51.204;22.552;2023-04-03T09:01:38;9.25;;;1.25;;
42964;SDS011;28604;51.204;22.552;2023-04-03T09:04:10;4.72;;;1.23;;
42964;SDS011;28604;51.204;22.552;2023-04-03T09:06:39;3.03;;;1.55;;
42964;SDS011;28604;51.204;22.552;2023-04-03T09:09:13;5.35;;;1.85;;
42964;SDS011;28604;51.204;22.552;2023-04-03T09:22:32;6.28;;;1.58;;
42964;SDS011;28604;51.204;22.552;2023-04-03T09:25:15;2.53;;;1.40;;
42964;SDS011;28604;51.204;22.552;2023-04-03T09:30:14;6.00;;;1.95;;
42964;SDS011;28604;51.204;22.552;2023-04-03T09:32:44;7.80;;;1.77;;
42964;SDS011;28604;51.204;22.552;2023-04-03T09:35:27;4.68;;;1.20;;
42964;SDS011;28604;51.204;22.552;2023-04-03T09:38:14;2.15;;;1.13;;
42964;SDS011;28604;51.204;22.552;2023-04-03T09:40:43;1.83;;;1.05;;
42964;SDS011;28604;51.204;22.552;2023-04-03T09:43:29;2.75;;;1.10;;
42964;SDS011;28604;51.204;22.552;2023-04-03T09:46:25;2.58;;;0.75;;
42964;SDS011;28604;51.204;22.552;2023-04-03T09:48:56;2.80;;;0.93;;
42964;SDS011;28604;51.204;22.552;2023-04-03T09:51:27;3.70;;;1.55;;
42964;SDS011;28604;51.204;22.552;2023-04-03T09:53:54;3.97;;;1.25;;
42964;SDS011;28604;51.204;22.552;2023-04-03T09:56:23;2.30;;;1.15;;
42964;SDS011;28604;51.204;22.552;2023-04-03T10:01:32;2.15;;;0.90;;
42964;SDS011;28604;51.204;22.552;2023-04-03T10:06:36;2.90;;;1.13;;
42964;SDS011;28604;51.204;22.552;2023-04-03T10:11:59;2.72;;;1.17;;
42964;SDS011;28604;51.204;22.552;2023-04-03T10:14:27;0.90;;;0.73;;
42964;SDS011;28604;51.204;22.552;2023-04-03T10:16:56;1.42;;;0.90;;
42964;SDS011;28604;51.204;22.552;2023-04-03T10:19:36;1.73;;;1.00;;
42964;SDS011;28604;51.204;22.552;2023-04-03T10:30:09;1.63;;;0.85;;
42964;SDS011;28604;51.204;22.552;2023-04-03T10:32:45;2.13;;;1.23;;
42964;SDS011;28604;51.204;22.552;2023-04-03T10:35:53;2.13;;;1.10;;
42964;SDS011;28604;51.204;22.552;2023-04-03T10:44:12;0.80;;;0.80;;
42964;SDS011;28604;51.204;22.552;2023-04-03T10:46:51;4.25;;;0.80;;
42964;SDS011;28604;51.204;22.552;2023-04-03T10:49:51;1.98;;;0.70;;
42964;SDS011;28604;51.204;22.552;2023-04-03T10:55:31;2.40;;;0.80;;
42964;SDS011;28604;51.204;22.552;2023-04-03T10:57:58;2.25;;;1.02;;
42964;SDS011;28604;51.204;22.552;2023-04-03T11:00:27;1.73;;;1.02;;
42964;SDS011;28604;51.204;22.552;2023-04-03T11:03:13;1.65;;;1.30;;
42964;SDS011;28604;51.204;22.552;2023-04-03T11:05:50;1.50;;;0.73;;
42964;SDS011;28604;51.204;22.552;2023-04-03T11:08:24;6.50;;;1.13;;
42964;SDS011;28604;51.204;22.552;2023-04-03T11:10:56;0.77;;;0.50;;
42964;SDS011;28604;51.204;22.552;2023-04-03T11:16:22;1.55;;;0.70;;
42964;SDS011;28604;51.204;22.552;2023-04-03T11:18:55;1.55;;;0.82;;
42964;SDS011;28604;51.204;22.552;2023-04-03T11:21:32;1.08;;;0.85;;
42964;SDS011;28604;51.204;22.552;2023-04-03T11:24:05;0.90;;;0.90;;
42964;SDS011;28604;51.204;22.552;2023-04-03T11:26:38;3.03;;;0.88;;
42964;SDS011;28604;51.204;22.552;2023-04-03T11:29:12;3.45;;;0.82;;
42964;SDS011;28604;51.204;22.552;2023-04-03T11:37:13;1.50;;;0.70;;
42964;SDS011;28604;51.204;22.552;2023-04-03T11:40:00;0.90;;;0.90;;
42964;SDS011;28604;51.204;22.552;2023-04-03T11:42:36;0.52;;;0.52;;
42964;SDS011;28604;51.204;22.552;2023-04-03T11:50:57;1.10;;;0.52;;
42964;SDS011;28604;51.204;22.552;2023-04-03T11:53:36;1.45;;;0.60;;
42964;SDS011;28604;51.204;22.552;2023-04-03T12:01:47;1.55;;;0.88;;
42964;SDS011;28604;51.204;22.552;2023-04-03T12:04:15;0.95;;;0.90;;
42964;SDS011;28604;51.204;22.552;2023-04-03T12:09:25;0.75;;;0.63;;
42964;SDS011;28604;51.204;22.552;2023-04-03T12:11:53;0.90;;;0.50;;
42964;SDS011;28604;51.204;22.552;2023-04-03T12:14:24;3.00;;;0.68;;
42964;SDS011;28604;51.204;22.552;2023-04-03T12:16:51;2.50;;;0.90;;
42964;SDS011;28604;51.204;22.552;2023-04-03T12:19:38;3.03;;;0.77;;
42964;SDS011;28604;51.204;22.552;2023-04-03T12:22:10;0.77;;;0.52;;
42964;SDS011;28604;51.204;22.552;2023-04-03T12:24:45;1.83;;;1.30;;
42964;SDS011;28604;51.204;22.552;2023-04-03T12:27:23;1.15;;;1.15;;
42964;SDS011;28604;51.204;22.552;2023-04-03T12:30:00;3.00;;;0.95;;
42964;SDS011;28604;51.204;22.552;2023-04-03T12:46:17;0.80;;;0.55;;
42964;SDS011;28604;51.204;22.552;2023-04-03T12:48:50;1.08;;;0.63;;
42964;SDS011;28604;51.204;22.552;2023-04-03T12:51:28;1.17;;;0.85;;
42964;SDS011;28604;51.204;22.552;2023-04-03T12:56:39;3.10;;;0.55;;
42964;SDS011;28604;51.204;22.552;2023-04-03T12:59:13;1.70;;;0.90;;
42964;SDS011;28604;51.204;22.552;2023-04-03T13:01:42;4.15;;;0.80;;
42964;SDS011;28604;51.204;22.552;2023-04-03T13:04:10;1.42;;;0.60;;
42964;SDS011;28604;51.204;22.552;2023-04-03T13:06:39;1.20;;;0.30;;
42964;SDS011;28604;51.204;22.552;2023-04-03T13:09:17;0.75;;;0.52;;
42964;SDS011;28604;51.204;22.552;2023-04-03T13:12:15;2.58;;;0.73;;
42964;SDS011;28604;51.204;22.552;2023-04-03T13:14:48;3.35;;;0.63;;
42964;SDS011;28604;51.204;22.552;2023-04-03T13:17:20;1.42;;;0.60;;
42964;SDS011;28604;51.204;22.552;2023-04-03T13:19:47;3.08;;;1.27;;
42964;SDS011;28604;51.204;22.552;2023-04-03T13:22:20;2.88;;;0.93;;
42964;SDS011;28604;51.204;22.552;2023-04-03T13:24:56;2.55;;;0.70;;
42964;SDS011;28604;51.204;22.552;2023-04-03T13:27:24;3.58;;;0.98;;
42964;SDS011;28604;51.204;22.552;2023-04-03T13:29:52;0.30;;;0.30;;
42964;SDS011;28604;51.204;22.552;2023-04-03T13:32:22;0.93;;;0.55;;
42964;SDS011;28604;51.204;22.552;2023-04-03T13:34:51;2.08;;;0.95;;
42964;SDS011;28604;51.204;22.552;2023-04-03T13:37:21;3.78;;;0.93;;
42964;SDS011;28604;51.204;22.552;2023-04-03T13:40:23;1.08;;;0.68;;
42964;SDS011;28604;51.204;22.552;2023-04-03T13:42:42;1.73;;;0.70;;
42964;SDS011;28604;51.204;22.552;2023-04-03T13:47:47;0.80;;;0.50;;
42964;SDS011;28604;51.204;22.552;2023-04-03T13:50:18;3.08;;;0.93;;
42964;SDS011;28604;51.204;22.552;2023-04-03T13:52:54;4.95;;;0.68;;
42964;SDS011;28604;51.204;22.552;2023-04-03T13:55:27;1.60;;;0.55;;
42964;SDS011;28604;51.204;22.552;2023-04-03T14:00:48;0.68;;;0.30;;
42964;SDS011;28604;51.204;22.552;2023-04-03T14:03:31;4.45;;;0.50;;
42964;SDS011;28604;51.204;22.552;2023-04-03T14:06:18;1.77;;;0.60;;
42964;SDS011;28604;51.204;22.552;2023-04-03T14:08:45;1.27;;;0.70;;
42964;SDS011;28604;51.204;22.552;2023-04-03T14:11:12;2.08;;;0.70;;
42964;SDS011;28604;51.204;22.552;2023-04-03T14:13:44;1.58;;;0.80;;
42964;SDS011;28604;51.204;22.552;2023-04-03T14:16:15;1.17;;;0.30;;
42964;SDS011;28604;51.204;22.552;2023-04-03T14:18:46;0.55;;;0.55;;
42964;SDS011;28604;51.204;22.552;2023-04-03T14:21:14;5.57;;;1.02;;
42964;SDS011;28604;51.204;22.552;2023-04-03T14:23:41;1.23;;;0.80;;
42964;SDS011;28604;51.204;22.552;2023-04-03T14:26:15;5.20;;;1.08;;
42964;SDS011;28604;51.204;22.552;2023-04-03T14:28:43;1.20;;;0.70;;
42964;SDS011;28604;51.204;22.552;2023-04-03T14:31:11;2.88;;;0.95;;
42964;SDS011;28604;51.204;22.552;2023-04-03T14:33:38;2.13;;;0.85;;
42964;SDS011;28604;51.204;22.552;2023-04-03T14:36:10;3.72;;;1.95;;
42964;SDS011;28604;51.204;22.552;2023-04-03T14:38:38;0.77;;;0.77;;
42964;SDS011;28604;51.204;22.552;2023-04-03T14:41:04;2.92;;;0.98;;
42964;SDS011;28604;51.204;22.552;2023-04-03T14:43:30;2.58;;;0.90;;
42964;SDS011;28604;51.204;22.552;2023-04-03T14:45:56;4.20;;;0.80;;
42964;SDS011;28604;51.204;22.552;2023-04-03T14:48:23;1.73;;;0.47;;
42964;SDS011;28604;51.204;22.552;2023-04-03T14:50:51;1.13;;;0.45;;
42964;SDS011;28604;51.204;22.552;2023-04-03T14:53:18;1.60;;;1.10;;
42964;SDS011;28604;51.204;22.552;2023-04-03T14:55:48;2.35;;;0.82;;
42964;SDS011;28604;51.204;22.552;2023-04-03T14:58:15;3.15;;;0.77;;
42964;SDS011;28604;51.204;22.552;2023-04-03T15:00:43;2.28;;;1.17;;
42964;SDS011;28604;51.204;22.552;2023-04-03T15:03:17;2.65;;;1.38;;
42964;SDS011;28604;51.204;22.552;2023-04-03T15:05:46;3.78;;;1.33;;
42964;SDS011;28604;51.204;22.552;2023-04-03T15:08:17;1.13;;;0.90;;
42964;SDS011;28604;51.204;22.552;2023-04-03T15:10:48;2.00;;;0.55;;
42964;SDS011;28604;51.204;22.552;2023-04-03T15:13:15;2.00;;;0.65;;
42964;SDS011;28604;51.204;22.552;2023-04-03T15:15:41;1.85;;;0.75;;
42964;SDS011;28604;51.204;22.552;2023-04-03T15:18:10;1.08;;;0.88;;
42964;SDS011;28604;51.204;22.552;2023-04-03T15:20:40;2.65;;;0.65;;
42964;SDS011;28604;51.204;22.552;2023-04-03T15:23:08;1.45;;;0.80;;
42964;SDS011;28604;51.204;22.552;2023-04-03T15:25:37;8.70;;;2.17;;
42964;SDS011;28604;51.204;22.552;2023-04-03T15:28:03;2.85;;;0.68;;
42964;SDS011;28604;51.204;22.552;2023-04-03T15:30:29;1.75;;;0.75;;
42964;SDS011;28604;51.204;22.552;2023-04-03T15:32:55;1.10;;;0.95;;
42964;SDS011;28604;51.204;22.552;2023-04-03T15:35:21;1.20;;;0.30;;
42964;SDS011;28604;51.204;22.552;2023-04-03T15:37:47;5.15;;;0.60;;
42964;SDS011;28604;51.204;22.552;2023-04-03T15:40:13;2.40;;;0.80;;
42964;SDS011;28604;51.204;22.552;2023-04-03T15:42:39;4.65;;;1.70;;
42964;SDS011;28604;51.204;22.552;2023-04-03T15:45:06;4.05;;;1.10;;
42964;SDS011;28604;51.204;22.552;2023-04-03T15:47:33;2.55;;;1.10;;
42964;SDS011;28604;51.204;22.552;2023-04-03T15:49:59;1.95;;;0.70;;
42964;SDS011;28604;51.204;22.552;2023-04-03T15:52:25;1.52;;;0.80;;
42964;SDS011;28604;51.204;22.552;2023-04-03T15:54:51;3.92;;;1.45;;
42964;SDS011;28604;51.204;22.552;2023-04-03T15:57:17;3.85;;;1.50;;
42964;SDS011;28604;51.204;22.552;2023-04-03T15:59:43;5.43;;;1.40;;
42964;SDS011;28604;51.204;22.552;2023-04-03T16:02:09;3.55;;;1.30;;
42964;SDS011;28604;51.204;22.552;2023-04-03T16:04:38;1.70;;;0.95;;
42964;SDS011;28604;51.204;22.552;2023-04-03T16:07:04;3.22;;;1.27;;
42964;SDS011;28604;51.204;22.552;2023-04-03T16:09:30;1.27;;;1.10;;
42964;SDS011;28604;51.204;22.552;2023-04-03T16:11:57;3.70;;;1.70;;
42964;SDS011;28604;51.204;22.552;2023-04-03T16:14:23;1.85;;;1.00;;
42964;SDS011;28604;51.204;22.552;2023-04-03T16:16:49;1.80;;;1.60;;